New Haven, Illinois
Current Conditions -  °F | °C
As of 12:35 AM on Friday 31 Oct 2014 (Local Time) from KCUL Reporting Station
Drizzle Drizzle  
Wind Chill: 51°   Ceiling: 6000
Heat Index: 51°   Visibility: 10mi
Dew Point: 48°   Wind: 6mph
Humidity: 91%   Direction: 20°NNE
Pressure: 30.03"   Gusts: NA
Location:  37.91°N, 88.13°W
Report Text: KCUL 310535Z AUTO 02005KT 10SM DZ SCT050 BKN060 11/09 A3003 RMK AO2 T01050091
Loading
Personal Weather Stations






























Interactive Weather Map
Tropical Storm Tracking
New forecast layout! Learn more

10-Day Weather Forecast

Advertisements
Track Severe Weather on mobile